createdAt,value
2023-10-20T00:31:24.597Z,70.54
2023-10-20T00:33:52.810Z,70.38
2023-10-20T00:36:20.947Z,70.38
2023-10-20T00:38:48.918Z,70.37
2023-10-20T00:41:19.042Z,70.44
2023-10-20T00:43:46.999Z,70.43
2023-10-20T00:46:15.235Z,70.54
2023-10-20T00:48:43.435Z,70.42
2023-10-20T00:51:12.554Z,70.38
2023-10-20T00:53:41.136Z,70.39
2023-10-20T00:56:09.200Z,70.71
2023-10-20T00:58:38.443Z,70.44
2023-10-20T01:01:07.145Z,70.41
2023-10-20T01:03:36.536Z,70.55
2023-10-20T01:06:06.296Z,70.75
2023-10-20T01:08:34.395Z,70.52
2023-10-20T01:11:02.948Z,70.81
2023-10-20T01:13:31.633Z,70.52
2023-10-20T01:15:59.572Z,70.65
2023-10-20T01:18:27.634Z,70.67
2023-10-20T01:20:56.203Z,70.77
2023-10-20T01:23:32.395Z,70.63
2023-10-20T01:26:00.309Z,70.89
2023-10-20T01:28:28.186Z,70.73
2023-10-20T01:30:58.356Z,70.79
2023-10-20T01:33:26.671Z,71.00
2023-10-20T01:35:54.858Z,71.12
2023-10-20T01:38:28.469Z,71.00
2023-10-20T01:40:56.594Z,71.01
2023-10-20T01:43:25.400Z,71.12
2023-10-20T01:45:54.246Z,71.08
2023-10-20T01:48:22.303Z,71.02
2023-10-20T01:50:55.540Z,70.97
2023-10-20T01:53:34.760Z,71.21
2023-10-20T01:56:03.439Z,71.25
2023-10-20T01:58:31.354Z,71.21
2023-10-20T02:00:59.451Z,71.49
2023-10-20T02:03:27.588Z,71.43
2023-10-20T02:05:55.754Z,71.27
2023-10-20T02:08:31.953Z,71.23
2023-10-20T02:11:00.789Z,71.17
2023-10-20T02:13:28.842Z,71.31
2023-10-20T02:15:56.805Z,71.15
2023-10-20T02:18:25.816Z,71.36
2023-10-20T02:21:03.986Z,71.23
2023-10-20T02:23:32.151Z,71.30
2023-10-20T02:26:00.686Z,71.43
2023-10-20T02:28:29.289Z,71.50
2023-10-20T02:30:57.370Z,71.50
2023-10-20T02:33:26.846Z,71.60
2023-10-20T02:35:55.460Z,71.68
2023-10-20T02:38:23.605Z,71.49
2023-10-20T02:40:53.496Z,71.49
2023-10-20T02:43:22.442Z,71.61
2023-10-20T02:45:52.154Z,71.59
2023-10-20T02:48:20.623Z,71.74
2023-10-20T02:50:48.582Z,71.89
2023-10-20T02:53:17.142Z,71.75
2023-10-20T02:55:45.553Z,71.85
2023-10-20T02:58:14.007Z,71.80
2023-10-20T03:00:43.369Z,71.72
2023-10-20T03:03:12.992Z,71.91
2023-10-20T03:05:44.318Z,72.05
2023-10-20T03:08:13.603Z,71.92
2023-10-20T03:10:42.175Z,71.84
2023-10-20T03:13:11.238Z,71.96
2023-10-20T03:15:39.268Z,72.04
2023-10-20T03:18:07.864Z,71.84
2023-10-20T03:20:37.244Z,72.11
2023-10-20T03:23:09.610Z,71.95
2023-10-20T03:25:41.027Z,72.12
2023-10-20T03:28:12.053Z,72.02
2023-10-20T03:30:40.937Z,72.31
2023-10-20T03:33:12.754Z,72.21
2023-10-20T03:35:41.360Z,72.04
2023-10-20T03:38:11.239Z,72.41
2023-10-20T03:40:42.282Z,72.52
2023-10-20T03:43:12.905Z,72.32
2023-10-20T03:45:44.715Z,72.48
2023-10-20T03:48:14.566Z,72.54
2023-10-20T03:50:44.713Z,72.32
2023-10-20T03:53:22.005Z,72.31
2023-10-20T03:55:59.751Z,72.45
2023-10-20T03:58:31.621Z,72.38
2023-10-20T04:01:02.564Z,72.68
2023-10-20T04:03:31.104Z,72.68
2023-10-20T04:06:01.896Z,72.39
2023-10-20T04:08:33.820Z,72.39
2023-10-20T04:11:02.270Z,72.58
2023-10-20T04:13:32.663Z,72.57
2023-10-20T04:16:12.641Z,72.60
2023-10-20T04:18:41.146Z,72.87
2023-10-20T04:21:09.600Z,72.76
2023-10-20T04:23:41.814Z,72.56
2023-10-20T04:26:19.917Z,72.63
2023-10-20T04:28:51.729Z,72.82
2023-10-20T04:31:39.308Z,73.01
2023-10-20T04:34:26.246Z,72.91
2023-10-20T04:37:12.794Z,72.82
2023-10-20T04:40:00.906Z,72.92
2023-10-20T04:43:06.530Z,72.99
2023-10-20T04:45:59.474Z,72.94
2023-10-20T04:49:07.281Z,73.15
2023-10-20T04:51:57.740Z,73.08
2023-10-20T04:54:42.087Z,73.20
2023-10-20T04:57:32.313Z,73.13
2023-10-20T05:00:25.183Z,73.10
2023-10-20T05:03:13.239Z,73.22
2023-10-20T05:05:45.137Z,73.37
2023-10-20T05:08:18.273Z,73.03
2023-10-20T05:10:48.790Z,73.27
2023-10-20T05:13:17.772Z,73.51
2023-10-20T05:15:47.690Z,73.35
2023-10-20T05:18:16.319Z,73.26
2023-10-20T05:20:46.071Z,73.34
2023-10-20T05:23:15.736Z,73.47
2023-10-20T05:25:47.719Z,73.60
2023-10-20T05:28:17.102Z,73.80
2023-10-20T05:30:46.275Z,73.86
2023-10-20T05:33:16.035Z,73.77
2023-10-20T05:35:45.050Z,73.50
2023-10-20T05:38:13.590Z,73.55
2023-10-20T05:40:41.651Z,73.81
2023-10-20T05:43:10.391Z,73.84
2023-10-20T05:45:40.149Z,73.65
2023-10-20T05:48:09.473Z,73.65
2023-10-20T05:50:39.186Z,73.73
2023-10-20T05:53:07.897Z,73.71
2023-10-20T05:55:36.637Z,73.63
2023-10-20T05:58:06.868Z,74.00
2023-10-20T06:00:49.168Z,73.76
2023-10-20T06:03:25.632Z,73.94
2023-10-20T06:05:58.100Z,73.78
2023-10-20T06:08:27.870Z,73.70
2023-10-20T06:11:04.205Z,73.75
2023-10-20T06:13:33.304Z,74.01
2023-10-20T06:16:09.141Z,73.85
2023-10-20T06:18:37.285Z,74.09
2023-10-20T06:21:05.571Z,74.02
2023-10-20T06:23:36.362Z,73.87
2023-10-20T06:26:04.688Z,74.25
2023-10-20T06:28:32.824Z,74.15
2023-10-20T06:31:05.904Z,74.29
2023-10-20T06:33:33.999Z,73.90
2023-10-20T06:36:11.511Z,74.17
2023-10-20T06:38:45.798Z,74.14
2023-10-20T06:41:15.383Z,74.23
2023-10-20T06:43:44.391Z,74.00
2023-10-20T06:46:12.842Z,74.18
2023-10-20T06:48:41.041Z,74.26
2023-10-20T06:51:09.874Z,74.13
2023-10-20T06:53:37.815Z,73.99
2023-10-20T06:58:39.429Z,74.35
2023-10-20T07:01:07.582Z,74.23
2023-10-20T07:03:35.748Z,74.32
2023-10-20T07:06:07.871Z,74.47
2023-10-20T07:08:36.394Z,74.39
2023-10-20T07:11:04.987Z,74.49
2023-10-20T07:13:33.487Z,74.42
2023-10-20T07:16:01.752Z,74.23
2023-10-20T07:18:30.523Z,74.18
2023-10-20T07:20:59.201Z,74.36
2023-10-20T07:23:27.519Z,74.31
2023-10-20T07:25:55.536Z,74.46
2023-10-20T07:28:23.544Z,74.71
2023-10-20T07:30:51.693Z,74.43
2023-10-20T07:33:19.973Z,74.58
2023-10-20T07:35:48.439Z,74.34
2023-10-20T07:38:17.833Z,74.40
2023-10-20T07:40:46.146Z,74.59
2023-10-20T07:43:14.311Z,74.65
2023-10-20T07:45:43.091Z,74.76
2023-10-20T07:48:12.472Z,74.67
2023-10-20T07:50:42.765Z,74.67
2023-10-20T07:53:12.706Z,74.71
2023-10-20T07:55:40.679Z,74.45
2023-10-20T07:58:09.735Z,74.83
2023-10-20T08:00:37.787Z,74.64
2023-10-20T08:03:12.641Z,74.80
2023-10-20T08:05:41.751Z,74.82
2023-10-20T08:08:10.170Z,74.73
2023-10-20T08:10:40.698Z,74.82
2023-10-20T08:13:10.363Z,74.86
2023-10-20T08:15:40.710Z,74.99
2023-10-20T08:18:14.678Z,75.16
2023-10-20T08:20:42.733Z,74.95
2023-10-20T08:23:13.898Z,75.22
2023-10-20T08:25:42.112Z,74.89
2023-10-20T08:28:10.120Z,74.95
2023-10-20T08:30:38.744Z,74.96
2023-10-20T08:33:07.539Z,75.17
2023-10-20T08:35:38.746Z,74.81
2023-10-20T08:38:07.886Z,74.98
2023-10-20T08:40:55.732Z,75.06
2023-10-20T08:43:24.426Z,74.94
2023-10-20T08:45:52.901Z,75.35
2023-10-20T08:48:21.410Z,75.40
2023-10-20T08:50:50.231Z,75.21
2023-10-20T08:53:21.357Z,75.35
2023-10-20T08:55:49.969Z,75.20
2023-10-20T08:58:18.788Z,75.16
2023-10-20T09:00:58.026Z,75.56
2023-10-20T09:03:27.585Z,75.59
2023-10-20T09:06:05.941Z,75.55
2023-10-20T09:08:36.881Z,75.79
2023-10-20T09:11:08.334Z,75.64
2023-10-20T09:13:38.545Z,75.40
2023-10-20T09:16:08.993Z,75.57
2023-10-20T09:18:44.352Z,75.53
2023-10-20T09:21:14.571Z,75.54
2023-10-20T09:23:54.680Z,75.45
2023-10-20T09:26:23.497Z,75.80
2023-10-20T09:28:54.259Z,75.78
2023-10-20T09:31:23.042Z,75.71
2023-10-20T09:33:51.535Z,75.66
2023-10-20T09:36:19.823Z,75.62
2023-10-20T09:38:51.248Z,75.69
2023-10-20T09:41:22.099Z,75.77
2023-10-20T09:43:53.518Z,75.62
2023-10-20T09:46:36.994Z,75.92
2023-10-20T09:49:09.929Z,75.77
2023-10-20T09:51:38.354Z,75.86
2023-10-20T09:54:09.242Z,75.75
2023-10-20T09:56:37.394Z,75.72
2023-10-20T09:59:06.445Z,75.74
2023-10-20T10:01:34.605Z,75.60
2023-10-20T10:04:04.370Z,75.71
2023-10-20T10:06:36.460Z,75.86
2023-10-20T10:09:04.960Z,75.67
2023-10-20T10:11:35.240Z,75.76
2023-10-20T10:14:05.318Z,75.72
2023-10-20T10:16:38.005Z,75.76
2023-10-20T10:19:11.637Z,75.87
2023-10-20T10:21:43.151Z,75.75
2023-10-20T10:24:15.550Z,75.68
2023-10-20T10:26:47.527Z,75.76
2023-10-20T10:29:16.841Z,75.97
2023-10-20T10:31:55.761Z,75.98
2023-10-20T10:34:27.582Z,75.82
2023-10-20T10:36:58.616Z,75.87
2023-10-20T10:39:28.277Z,75.75
2023-10-20T10:42:01.573Z,75.62
2023-10-20T10:44:33.240Z,75.89
2023-10-20T10:47:01.331Z,76.01
2023-10-20T10:49:29.409Z,76.05
2023-10-20T10:51:57.395Z,75.84
2023-10-20T10:54:27.461Z,75.92
2023-10-20T10:56:57.467Z,75.74
2023-10-20T10:59:28.094Z,75.71
2023-10-20T11:01:57.055Z,75.84
2023-10-20T11:04:25.971Z,75.86
2023-10-20T11:06:54.060Z,75.92
2023-10-20T11:09:27.388Z,76.05
2023-10-20T11:11:55.316Z,76.13
2023-10-20T11:14:24.298Z,75.93
2023-10-20T11:16:52.289Z,75.83
2023-10-20T11:19:20.657Z,76.07
2023-10-20T11:21:49.598Z,75.97
2023-10-20T11:24:29.204Z,76.20
2023-10-20T11:26:58.828Z,76.04
2023-10-20T11:29:30.819Z,76.14
2023-10-20T11:32:06.193Z,76.02
2023-10-20T11:34:34.364Z,76.21
2023-10-20T11:37:03.441Z,76.08
2023-10-20T11:39:33.314Z,76.16
2023-10-20T11:42:01.721Z,76.30
2023-10-20T11:44:29.902Z,76.13
2023-10-20T11:46:57.894Z,76.44
2023-10-20T11:49:26.163Z,76.25
2023-10-20T11:51:54.429Z,76.33
2023-10-20T11:54:22.944Z,75.95
2023-10-20T11:56:51.246Z,76.14
2023-10-20T11:59:19.618Z,76.39
2023-10-20T12:01:48.349Z,76.20
2023-10-20T12:04:16.942Z,76.12
2023-10-20T12:06:44.954Z,76.42
2023-10-20T12:09:15.661Z,76.32
2023-10-20T12:11:46.033Z,76.21
2023-10-20T12:14:15.743Z,76.14
2023-10-20T12:16:43.927Z,76.23
2023-10-20T12:19:13.497Z,76.23
2023-10-20T12:21:41.643Z,76.11
2023-10-20T12:24:10.257Z,76.29
2023-10-20T12:26:38.576Z,76.41
2023-10-20T12:29:07.629Z,76.38
2023-10-20T12:31:36.706Z,76.54
2023-10-20T12:34:05.851Z,76.45
2023-10-20T12:36:36.670Z,76.24
2023-10-20T12:39:07.462Z,75.98
2023-10-20T12:41:36.145Z,76.26
2023-10-20T12:44:04.985Z,76.48
2023-10-20T12:46:33.042Z,76.22
2023-10-20T12:49:01.292Z,76.35
2023-10-20T12:51:29.535Z,76.17
2023-10-20T12:53:57.467Z,76.45
2023-10-20T12:56:25.724Z,75.94
2023-10-20T12:58:54.157Z,76.37
2023-10-20T13:01:22.464Z,76.39
2023-10-20T13:03:51.857Z,76.47
2023-10-20T13:06:20.063Z,76.42
2023-10-20T13:08:48.242Z,76.48
2023-10-20T13:11:16.343Z,76.29
2023-10-20T13:13:44.761Z,76.44
2023-10-20T13:16:12.906Z,76.21
2023-10-20T13:18:40.814Z,76.22
2023-10-20T13:21:08.807Z,76.26
2023-10-20T13:23:38.700Z,76.28
2023-10-20T13:26:06.883Z,76.49
2023-10-20T13:28:35.618Z,76.63
2023-10-20T13:31:09.184Z,76.63
2023-10-20T13:33:38.010Z,76.24
2023-10-20T13:36:08.871Z,76.68
2023-10-20T13:38:38.913Z,76.41
2023-10-20T13:41:07.330Z,76.51
2023-10-20T13:43:35.356Z,76.48
2023-10-20T13:46:03.448Z,76.23
2023-10-20T13:48:31.750Z,76.30
2023-10-20T13:51:00.254Z,76.36
2023-10-20T13:53:28.504Z,76.29
2023-10-20T13:55:56.642Z,76.60
2023-10-20T13:58:24.848Z,76.42
2023-10-20T14:00:54.044Z,76.88
2023-10-20T14:03:22.499Z,76.33
2023-10-20T14:05:55.243Z,76.36
2023-10-20T14:08:23.473Z,76.78
2023-10-20T14:10:51.967Z,76.85
2023-10-20T14:13:21.371Z,76.72
2023-10-20T14:15:50.934Z,76.82
2023-10-20T14:18:19.547Z,76.64
2023-10-20T14:20:47.633Z,76.96
2023-10-20T14:23:18.436Z,76.67
2023-10-20T14:25:46.926Z,76.97
2023-10-20T14:28:15.543Z,76.66
2023-10-20T14:30:43.416Z,76.97
2023-10-20T14:33:12.775Z,76.58
2023-10-20T14:35:42.226Z,76.79
2023-10-20T14:38:10.386Z,76.66
2023-10-20T14:40:39.738Z,76.94
2023-10-20T14:43:07.968Z,76.62
2023-10-20T14:45:36.495Z,77.45
2023-10-20T14:48:06.779Z,77.34
2023-10-20T14:50:36.782Z,76.82
2023-10-20T14:53:05.279Z,76.80
2023-10-20T14:55:36.406Z,77.02
2023-10-20T14:58:06.794Z,77.01
2023-10-20T15:00:36.779Z,76.83
2023-10-20T15:03:05.799Z,77.23
2023-10-20T15:05:37.848Z,77.04
2023-10-20T15:08:06.608Z,76.94
2023-10-20T15:10:35.427Z,76.92
2023-10-20T15:13:06.465Z,77.09
2023-10-20T15:15:35.978Z,76.91
2023-10-20T15:18:07.251Z,77.26
2023-10-20T15:20:35.825Z,77.11
2023-10-20T15:23:16.519Z,77.19
2023-10-20T15:25:46.734Z,77.15
2023-10-20T15:28:15.845Z,77.33
2023-10-20T15:30:44.016Z,77.13
2023-10-20T15:33:15.678Z,77.28
2023-10-20T15:35:45.553Z,77.10
2023-10-20T15:38:13.979Z,77.12
2023-10-20T15:40:43.241Z,77.05
2023-10-20T15:43:13.599Z,77.20
2023-10-20T15:45:41.745Z,77.24
2023-10-20T15:48:10.704Z,77.62
2023-10-20T15:50:43.679Z,77.23
2023-10-20T15:53:11.858Z,77.35
2023-10-20T15:55:40.841Z,77.50
2023-10-20T15:58:09.728Z,77.38
2023-10-20T16:00:37.878Z,77.47
2023-10-20T16:03:07.262Z,77.38
2023-10-20T16:05:38.004Z,77.54
2023-10-20T16:08:06.706Z,77.46
2023-10-20T16:10:34.803Z,77.58
2023-10-20T16:13:04.507Z,77.31
2023-10-20T16:15:34.868Z,77.38
2023-10-20T16:18:07.779Z,77.54
2023-10-20T16:20:36.481Z,77.70
2023-10-20T16:23:08.966Z,77.70
2023-10-20T16:25:38.182Z,77.94
2023-10-20T16:28:08.826Z,77.48
2023-10-20T16:30:36.789Z,77.71
2023-10-20T16:33:05.994Z,77.62
2023-10-20T16:35:34.180Z,77.79
2023-10-20T16:38:05.771Z,77.85
2023-10-20T16:40:36.123Z,77.90
2023-10-20T16:43:08.595Z,77.63
2023-10-20T16:45:37.711Z,77.73
2023-10-20T16:48:07.594Z,77.84
2023-10-20T16:50:37.569Z,77.58
2023-10-20T16:53:08.660Z,78.18
2023-10-20T16:55:37.944Z,77.64
2023-10-20T16:58:06.894Z,78.18
2023-10-20T17:00:36.760Z,78.14
2023-10-20T17:03:07.167Z,77.74
2023-10-20T17:05:38.081Z,78.08
2023-10-20T17:08:07.035Z,77.90
2023-10-20T17:10:39.115Z,78.02
2023-10-20T17:13:10.515Z,78.17
2023-10-20T17:15:39.393Z,77.96
2023-10-20T17:18:09.711Z,77.95
2023-10-20T17:20:41.342Z,78.13
2023-10-20T17:23:13.913Z,78.55
2023-10-20T17:25:46.694Z,77.89
2023-10-20T17:28:14.912Z,78.23
2023-10-20T17:30:43.435Z,78.04
2023-10-20T17:33:11.483Z,77.97
2023-10-20T17:35:40.642Z,78.25
2023-10-20T17:38:09.199Z,78.05
2023-10-20T17:40:37.082Z,78.23
2023-10-20T17:43:05.681Z,78.24
2023-10-20T17:45:37.644Z,78.27
2023-10-20T17:48:08.447Z,78.25
2023-10-20T17:50:37.359Z,78.17
2023-10-20T17:53:08.496Z,78.35
2023-10-20T17:55:40.688Z,78.26
2023-10-20T17:58:09.526Z,78.15
2023-10-20T18:00:37.535Z,78.15
2023-10-20T18:03:07.647Z,78.33
2023-10-20T18:05:40.067Z,78.51
2023-10-20T18:08:11.403Z,78.70
2023-10-20T18:10:42.270Z,78.41
2023-10-20T18:13:10.869Z,78.12
2023-10-20T18:15:39.875Z,78.64
2023-10-20T18:18:08.414Z,78.81
2023-10-20T18:20:40.167Z,78.31
2023-10-20T18:23:08.806Z,78.33
2023-10-20T18:25:37.166Z,78.41
2023-10-20T18:28:06.865Z,78.66
2023-10-20T18:30:35.154Z,78.35
2023-10-20T18:33:06.927Z,78.54
2023-10-20T18:35:35.215Z,78.69
2023-10-20T18:38:06.154Z,78.37
2023-10-20T18:40:35.325Z,78.78
2023-10-20T18:43:06.374Z,78.46
2023-10-20T18:45:34.447Z,78.96
2023-10-20T18:48:10.265Z,78.39
2023-10-20T18:50:39.588Z,79.20
2023-10-20T18:53:08.746Z,78.94
2023-10-20T18:55:36.812Z,78.62
2023-10-20T18:58:07.498Z,78.84
2023-10-20T19:00:35.564Z,78.62
2023-10-20T19:03:08.103Z,79.01
2023-10-20T19:05:36.598Z,79.12
2023-10-20T19:08:08.892Z,78.95
2023-10-20T19:10:37.151Z,78.84
2023-10-20T19:13:07.920Z,78.78
2023-10-20T19:15:36.643Z,78.97
2023-10-20T19:18:10.326Z,79.08
2023-10-20T19:20:38.533Z,78.85
2023-10-20T19:23:09.628Z,78.96
2023-10-20T19:25:42.532Z,78.94
2023-10-20T19:28:14.542Z,79.09
2023-10-20T19:30:43.386Z,78.87
2023-10-20T19:33:11.699Z,79.23
2023-10-20T19:35:39.741Z,78.89
2023-10-20T19:38:08.018Z,79.21
2023-10-20T19:40:37.297Z,79.20
2023-10-20T19:43:05.523Z,79.04
2023-10-20T19:45:34.561Z,78.97
2023-10-20T19:48:04.980Z,79.29
2023-10-20T19:50:35.730Z,79.35
2023-10-20T19:53:06.564Z,79.22
2023-10-20T19:55:34.819Z,79.38
2023-10-20T19:58:05.859Z,79.19
2023-10-20T20:00:34.031Z,79.17
2023-10-20T20:03:06.175Z,79.17
2023-10-20T20:05:38.023Z,79.25
2023-10-20T20:08:07.362Z,79.13
2023-10-20T20:10:35.863Z,79.33
2023-10-20T20:13:07.418Z,79.21
2023-10-20T20:15:36.006Z,79.25
2023-10-20T20:18:07.687Z,79.21
2023-10-20T20:20:37.795Z,79.18
2023-10-20T20:23:07.402Z,79.21
2023-10-20T20:25:35.775Z,79.38
2023-10-20T20:28:06.079Z,79.25
2023-10-20T20:30:34.369Z,79.35
2023-10-20T20:33:04.441Z,79.31
2023-10-20T20:35:33.276Z,79.39
2023-10-20T20:38:01.896Z,79.31
2023-10-20T20:40:31.361Z,79.40
2023-10-20T20:42:59.591Z,79.32
2023-10-20T20:45:27.908Z,79.43
2023-10-20T20:47:55.911Z,79.18
2023-10-20T20:50:32.808Z,79.42
2023-10-20T20:53:02.811Z,79.51
2023-10-20T20:55:35.683Z,79.31
2023-10-20T20:58:06.787Z,79.36
2023-10-20T21:00:35.804Z,79.34
2023-10-20T21:03:08.870Z,79.37
2023-10-20T21:05:37.232Z,79.55
2023-10-20T21:08:07.765Z,79.57
2023-10-20T21:10:36.330Z,79.54
2023-10-20T21:13:05.652Z,79.31
2023-10-20T21:15:38.204Z,79.36
2023-10-20T21:18:08.428Z,79.40
2023-10-20T21:20:38.325Z,79.39
2023-10-20T21:23:08.811Z,79.29
2023-10-20T21:25:37.913Z,79.74
2023-10-20T21:28:09.690Z,79.41
2023-10-20T21:30:37.803Z,79.68
2023-10-20T21:33:06.513Z,79.63
2023-10-20T21:35:38.018Z,79.62
2023-10-20T21:38:07.017Z,79.57
2023-10-20T21:40:41.893Z,79.62
2023-10-20T21:43:10.425Z,79.88
2023-10-20T21:45:38.511Z,79.26
2023-10-20T21:48:07.805Z,79.55
2023-10-20T21:50:36.500Z,79.60
2023-10-20T21:53:09.927Z,79.57
2023-10-20T21:55:38.010Z,79.70
2023-10-20T21:58:06.474Z,79.81
2023-10-20T22:00:37.260Z,79.67
2023-10-20T22:03:09.229Z,79.74
2023-10-20T22:05:37.649Z,79.80
2023-10-20T22:08:07.426Z,79.81
2023-10-20T22:10:35.879Z,79.78
2023-10-20T22:13:05.597Z,79.67
2023-10-20T22:15:33.526Z,79.86
2023-10-20T22:18:04.405Z,80.08
2023-10-20T22:20:33.380Z,79.93
2023-10-20T22:23:02.612Z,79.77
2023-10-20T22:25:30.958Z,80.05
2023-10-20T22:27:58.936Z,79.64
2023-10-20T22:30:27.707Z,79.75
2023-10-20T22:32:56.165Z,79.99
2023-10-20T22:35:25.274Z,80.04
2023-10-20T22:37:53.589Z,79.79
2023-10-20T22:40:22.630Z,79.72
2023-10-20T22:42:51.316Z,79.89
2023-10-20T22:45:19.284Z,79.95
2023-10-20T22:47:47.585Z,79.69
2023-10-20T22:50:18.655Z,79.85
2023-10-20T22:52:47.395Z,80.00
2023-10-20T22:55:16.141Z,80.16
2023-10-20T22:57:44.262Z,80.27
2023-10-20T23:00:13.977Z,80.14
2023-10-20T23:02:42.287Z,80.19
2023-10-20T23:05:10.610Z,79.57
2023-10-20T23:07:39.161Z,80.12
2023-10-20T23:10:09.007Z,80.22
2023-10-20T23:12:37.042Z,80.08
2023-10-20T23:15:06.835Z,80.12
2023-10-20T23:17:35.009Z,80.46
2023-10-20T23:20:04.198Z,80.29
2023-10-20T23:22:32.398Z,79.85
2023-10-20T23:25:00.289Z,80.32
2023-10-20T23:27:28.355Z,79.96
2023-10-20T23:29:56.371Z,80.34
2023-10-20T23:32:24.615Z,80.38
2023-10-20T23:34:54.189Z,80.22
2023-10-20T23:37:22.397Z,80.44
2023-10-20T23:39:54.593Z,80.46
2023-10-20T23:42:22.593Z,80.11
2023-10-20T23:44:51.202Z,80.43
2023-10-20T23:47:19.178Z,80.06
2023-10-20T23:49:47.262Z,80.36
2023-10-20T23:52:15.635Z,79.90
2023-10-20T23:54:44.694Z,80.21
2023-10-20T23:57:13.465Z,80.67
2023-10-20T23:59:42.095Z,80.50
